createdAt,value
2023-01-08T00:00:18.451Z,16.69
2023-01-08T00:01:35.845Z,16.72
2023-01-08T00:02:16.956Z,16.73
2023-01-08T00:03:17.277Z,16.69
2023-01-08T00:04:16.052Z,16.71
2023-01-08T00:05:38.922Z,16.74
2023-01-08T00:06:16.999Z,16.77
2023-01-08T00:07:17.011Z,16.83
2023-01-08T00:08:17.137Z,16.83
2023-01-08T00:09:16.841Z,16.88
2023-01-08T00:10:16.911Z,16.84
2023-01-08T00:11:16.938Z,16.85
2023-01-08T00:12:16.966Z,16.88
2023-01-08T00:13:16.564Z,16.92
2023-01-08T00:14:16.181Z,16.93
2023-01-08T00:15:17.283Z,16.95
2023-01-08T00:16:17.071Z,16.97
2023-01-08T00:17:16.592Z,16.97
2023-01-08T00:18:16.231Z,16.97
2023-01-08T00:19:16.556Z,16.98
2023-01-08T00:20:16.772Z,16.92
2023-01-08T00:21:17.123Z,16.86
2023-01-08T00:22:16.338Z,16.73
2023-01-08T00:23:16.459Z,16.67
2023-01-08T00:24:16.393Z,16.74
2023-01-08T00:25:16.935Z,16.78
2023-01-08T00:26:16.524Z,16.84
2023-01-08T00:27:16.596Z,16.80
2023-01-08T00:28:16.289Z,16.74
2023-01-08T00:29:17.127Z,16.66
2023-01-08T00:30:16.679Z,16.62
2023-01-08T00:31:16.396Z,16.67
2023-01-08T00:32:16.843Z,16.62
2023-01-08T00:33:17.405Z,16.61
2023-01-08T00:34:15.991Z,16.67
2023-01-08T00:35:16.737Z,16.64
2023-01-08T00:36:16.001Z,16.60
2023-01-08T00:37:16.524Z,16.69
2023-01-08T00:38:16.671Z,16.68
2023-01-08T00:39:16.824Z,16.67
2023-01-08T00:40:17.012Z,16.72
2023-01-08T00:41:16.857Z,16.72
2023-01-08T00:42:16.813Z,16.70
2023-01-08T00:43:16.957Z,16.68
2023-01-08T00:44:16.209Z,16.54
2023-01-08T00:45:17.162Z,16.54
2023-01-08T00:46:16.943Z,16.54
2023-01-08T00:47:17.174Z,16.54
2023-01-08T00:48:16.300Z,16.52
2023-01-08T00:49:16.619Z,16.58
2023-01-08T00:50:16.430Z,16.64
2023-01-08T00:51:16.200Z,16.65
2023-01-08T00:52:16.147Z,16.74
2023-01-08T00:53:16.672Z,16.79
2023-01-08T00:54:16.168Z,16.82
2023-01-08T00:55:16.905Z,16.79
2023-01-08T00:56:16.013Z,16.81
2023-01-08T00:57:16.677Z,16.84
2023-01-08T00:58:16.275Z,16.77
2023-01-08T00:59:16.487Z,16.79
2023-01-08T01:00:17.572Z,16.83
2023-01-08T01:01:19.008Z,16.83
2023-01-08T01:02:16.544Z,16.80
2023-01-08T01:03:16.846Z,16.77
2023-01-08T01:04:17.095Z,16.75
2023-01-08T01:05:17.089Z,16.69
2023-01-08T01:06:16.654Z,16.72
2023-01-08T01:07:16.959Z,16.80
2023-01-08T01:08:16.292Z,16.86
2023-01-08T01:09:16.364Z,16.88
2023-01-08T01:10:16.865Z,16.95
2023-01-08T01:11:16.811Z,16.99
2023-01-08T01:12:16.487Z,17.04
2023-01-08T01:13:16.472Z,17.02
2023-01-08T01:14:16.227Z,17
2023-01-08T01:15:16.627Z,16.97
2023-01-08T01:16:16.393Z,16.91
2023-01-08T01:17:16.293Z,16.90
2023-01-08T01:18:16.650Z,16.98
2023-01-08T01:19:17.057Z,16.96
2023-01-08T01:20:16.551Z,16.93
2023-01-08T01:21:16.332Z,16.97
2023-01-08T01:22:16.155Z,16.98
2023-01-08T01:23:16.329Z,17
2023-01-08T01:24:16.389Z,17.04
2023-01-08T01:25:16.662Z,17.09
2023-01-08T01:26:16.483Z,17.13
2023-01-08T01:27:16.721Z,17.12
2023-01-08T01:28:16.387Z,17.13
2023-01-08T01:29:16.668Z,17.15
2023-01-08T01:30:16.577Z,17.15
2023-01-08T01:31:16.993Z,17.14
2023-01-08T01:32:16.819Z,17.17
2023-01-08T01:33:16.880Z,17.12
2023-01-08T01:34:17.087Z,17.12
2023-01-08T01:35:17.013Z,17.14
2023-01-08T01:36:16.821Z,17.09
2023-01-08T01:37:16.349Z,17.07
2023-01-08T01:38:16.638Z,17.06
2023-01-08T01:39:16.952Z,17.00
2023-01-08T01:40:16.971Z,17.00
2023-01-08T01:41:16.639Z,16.96
2023-01-08T01:42:17.054Z,16.89
2023-01-08T01:43:17.184Z,16.81
2023-01-08T01:44:16.597Z,16.85
2023-01-08T01:45:16.757Z,16.88
2023-01-08T01:46:16.638Z,16.87
2023-01-08T01:47:16.656Z,16.76
2023-01-08T01:48:16.573Z,16.71
2023-01-08T01:49:16.743Z,16.66
2023-01-08T01:50:16.960Z,16.71
2023-01-08T01:51:16.389Z,16.79
2023-01-08T01:52:16.478Z,16.85
2023-01-08T01:53:16.572Z,16.85
2023-01-08T01:54:16.593Z,16.82
2023-01-08T01:55:17.367Z,16.84
2023-01-08T01:56:16.212Z,16.74
2023-01-08T01:57:17.130Z,16.72
2023-01-08T01:58:16.607Z,16.77
2023-01-08T01:59:16.931Z,16.74
2023-01-08T02:00:17.888Z,16.73
2023-01-08T02:01:17.060Z,16.73
2023-01-08T02:02:16.665Z,16.76
2023-01-08T02:03:16.515Z,16.82
2023-01-08T02:04:16.339Z,16.87
2023-01-08T02:05:16.996Z,16.87
2023-01-08T02:06:17.127Z,16.92
2023-01-08T02:07:17.133Z,16.93
2023-01-08T02:08:16.519Z,16.90
2023-01-08T02:09:15.837Z,16.79
2023-01-08T02:10:16.690Z,16.81
2023-01-08T02:11:16.737Z,16.84
2023-01-08T02:12:16.188Z,16.83
2023-01-08T02:13:15.943Z,16.82
2023-01-08T02:14:16.206Z,16.86
2023-01-08T02:15:16.963Z,16.90
2023-01-08T02:16:16.842Z,16.91
2023-01-08T02:17:17.210Z,16.80
2023-01-08T02:18:16.957Z,16.75
2023-01-08T02:19:16.719Z,16.81
2023-01-08T02:20:16.796Z,16.76
2023-01-08T02:21:16.396Z,16.75
2023-01-08T02:22:16.430Z,16.68
2023-01-08T02:23:16.876Z,16.59
2023-01-08T02:24:16.147Z,16.63
2023-01-08T02:25:16.489Z,16.66
2023-01-08T02:26:16.630Z,16.68
2023-01-08T02:27:16.474Z,16.70
2023-01-08T02:28:16.363Z,16.74
2023-01-08T02:29:16.471Z,16.79
2023-01-08T02:30:16.627Z,16.79
2023-01-08T02:31:16.623Z,16.75
2023-01-08T02:32:16.694Z,16.71
2023-01-08T02:33:16.402Z,16.70
2023-01-08T02:34:16.279Z,16.73
2023-01-08T02:35:16.431Z,16.57
2023-01-08T02:36:16.560Z,16.59
2023-01-08T02:37:16.462Z,16.63
2023-01-08T02:38:16.332Z,16.67
2023-01-08T02:39:15.029Z,16.56
2023-01-08T02:40:16.995Z,16.55
2023-01-08T02:41:16.421Z,16.57
2023-01-08T02:42:17.053Z,16.54
2023-01-08T02:43:16.558Z,16.51
2023-01-08T02:44:16.262Z,16.45
2023-01-08T02:45:17.080Z,16.45
2023-01-08T02:46:16.517Z,16.51
2023-01-08T02:47:16.863Z,16.42
2023-01-08T02:48:16.309Z,16.44
2023-01-08T02:49:16.318Z,16.50
2023-01-08T02:50:16.679Z,16.47
2023-01-08T02:51:16.527Z,16.46
2023-01-08T02:52:16.586Z,16.41
2023-01-08T02:53:17.047Z,16.47
2023-01-08T02:54:16.960Z,16.52
2023-01-08T02:55:17.326Z,16.56
2023-01-08T02:56:16.282Z,16.51
2023-01-08T02:57:16.798Z,16.50
2023-01-08T02:58:16.485Z,16.53
2023-01-08T02:59:16.559Z,16.54
2023-01-08T03:00:17.647Z,16.59
2023-01-08T03:01:16.687Z,16.62
2023-01-08T03:02:17.519Z,16.57
2023-01-08T03:03:17.211Z,16.62
2023-01-08T03:04:16.439Z,16.64
2023-01-08T03:05:16.839Z,16.65
2023-01-08T03:06:16.709Z,16.67
2023-01-08T03:07:16.899Z,16.75
2023-01-08T03:08:16.285Z,16.77
2023-01-08T03:09:16.645Z,16.69
2023-01-08T03:10:16.622Z,16.61
2023-01-08T03:11:16.795Z,16.65
2023-01-08T03:12:16.673Z,16.71
2023-01-08T03:13:16.730Z,16.71
2023-01-08T03:14:16.329Z,16.73
2023-01-08T03:15:16.685Z,16.78
2023-01-08T03:16:16.632Z,16.82
2023-01-08T03:17:16.561Z,16.83
2023-01-08T03:18:16.562Z,16.82
2023-01-08T03:19:16.596Z,16.84
2023-01-08T03:20:16.817Z,16.87
2023-01-08T03:21:16.937Z,16.81
2023-01-08T03:22:16.689Z,16.82
2023-01-08T03:23:16.562Z,16.86
2023-01-08T03:24:16.598Z,16.87
2023-01-08T03:25:16.710Z,16.86
2023-01-08T03:26:16.566Z,16.83
2023-01-08T03:27:16.801Z,16.86
2023-01-08T03:28:16.953Z,16.88
2023-01-08T03:29:17.017Z,16.91
2023-01-08T03:30:17.017Z,16.92
2023-01-08T03:31:16.916Z,16.91
2023-01-08T03:32:16.802Z,16.94
2023-01-08T03:33:16.670Z,16.92
2023-01-08T03:34:16.862Z,16.85
2023-01-08T03:35:17.178Z,16.85
2023-01-08T03:36:16.852Z,16.79
2023-01-08T03:37:17.052Z,16.79
2023-01-08T03:38:16.978Z,16.77
2023-01-08T03:39:17.053Z,16.77
2023-01-08T03:40:17.131Z,16.71
2023-01-08T03:41:17.002Z,16.73
2023-01-08T03:42:17.196Z,16.75
2023-01-08T03:43:16.918Z,16.77
2023-01-08T03:44:17.134Z,16.78
2023-01-08T03:45:17.288Z,16.79
2023-01-08T03:46:16.680Z,16.69
2023-01-08T03:47:17.011Z,16.54
2023-01-08T03:48:16.892Z,16.48
2023-01-08T03:49:16.962Z,16.48
2023-01-08T03:50:16.906Z,16.44
2023-01-08T03:51:16.834Z,16.40
2023-01-08T03:52:16.521Z,16.44
2023-01-08T03:53:16.860Z,16.50
2023-01-08T03:54:16.732Z,16.59
2023-01-08T03:55:17.411Z,16.53
2023-01-08T03:56:16.489Z,16.50
2023-01-08T03:57:16.854Z,16.51
2023-01-08T03:58:16.267Z,16.55
2023-01-08T03:59:16.696Z,16.62
2023-01-08T04:00:17.982Z,16.67
2023-01-08T04:01:17.022Z,16.65
2023-01-08T04:02:16.857Z,16.66
2023-01-08T04:03:16.597Z,16.59
2023-01-08T04:04:16.736Z,16.61
2023-01-08T04:05:17.044Z,16.62
2023-01-08T04:06:16.949Z,16.60
2023-01-08T04:07:16.605Z,16.64
2023-01-08T04:08:16.803Z,16.65
2023-01-08T04:09:16.582Z,16.68
2023-01-08T04:10:16.622Z,16.64
2023-01-08T04:11:16.583Z,16.55
2023-01-08T04:12:16.463Z,16.54
2023-01-08T04:13:16.580Z,16.54
2023-01-08T04:14:16.556Z,16.52
2023-01-08T04:15:16.910Z,16.39
2023-01-08T04:16:16.972Z,16.31
2023-01-08T04:17:16.773Z,16.34
2023-01-08T04:18:16.531Z,16.44
2023-01-08T04:19:16.869Z,16.54
2023-01-08T04:20:16.742Z,16.58
2023-01-08T04:21:16.789Z,16.60
2023-01-08T04:22:16.847Z,16.54
2023-01-08T04:23:17.048Z,16.49
2023-01-08T04:24:16.770Z,16.53
2023-01-08T04:25:16.981Z,16.55
2023-01-08T04:26:16.766Z,16.55
2023-01-08T04:27:16.809Z,16.48
2023-01-08T04:28:16.593Z,16.47
2023-01-08T04:29:16.707Z,16.54
2023-01-08T04:30:16.629Z,16.57
2023-01-08T04:31:16.501Z,16.57
2023-01-08T04:32:16.815Z,16.57
2023-01-08T04:33:16.493Z,16.55
2023-01-08T04:34:16.532Z,16.50
2023-01-08T04:35:16.826Z,16.53
2023-01-08T04:36:16.837Z,16.51
2023-01-08T04:37:17.262Z,16.40
2023-01-08T04:38:17.358Z,16.32
2023-01-08T04:39:17.362Z,16.36
2023-01-08T04:40:16.707Z,16.32
2023-01-08T04:41:16.942Z,16.35
2023-01-08T04:42:16.874Z,16.30
2023-01-08T04:43:17.296Z,16.33
2023-01-08T04:44:16.835Z,16.37
2023-01-08T04:45:17.348Z,16.46
2023-01-08T04:46:16.584Z,16.48
2023-01-08T04:47:16.591Z,16.46
2023-01-08T04:48:16.631Z,16.5
2023-01-08T04:49:16.768Z,16.45
2023-01-08T04:50:17.303Z,16.38
2023-01-08T04:51:16.823Z,16.40
2023-01-08T04:52:17.205Z,16.45
2023-01-08T04:53:16.703Z,16.45
2023-01-08T04:54:17.083Z,16.46
2023-01-08T04:55:17.068Z,16.39
2023-01-08T04:56:16.684Z,16.30
2023-01-08T04:57:16.905Z,16.27
2023-01-08T04:58:16.736Z,16.31
2023-01-08T04:59:16.713Z,16.35
2023-01-08T05:00:17.645Z,16.42
2023-01-08T05:01:17.377Z,16.45
2023-01-08T05:02:16.802Z,16.41
2023-01-08T05:03:17.187Z,16.33
2023-01-08T05:04:16.580Z,16.36
2023-01-08T05:05:17.140Z,16.44
2023-01-08T05:06:16.797Z,16.48
2023-01-08T05:07:16.802Z,16.45
2023-01-08T05:08:16.730Z,16.30
2023-01-08T05:09:17.117Z,16.23
2023-01-08T05:10:16.725Z,16.21
2023-01-08T05:11:17.212Z,16.28
2023-01-08T05:12:16.697Z,16.34
2023-01-08T05:13:16.686Z,16.28
2023-01-08T05:14:16.297Z,16.27
2023-01-08T05:15:17.028Z,16.23
2023-01-08T05:16:16.733Z,16.32
2023-01-08T05:17:16.815Z,16.29
2023-01-08T05:18:16.769Z,16.33
2023-01-08T05:19:16.757Z,16.38
2023-01-08T05:20:19.005Z,16.35
2023-01-08T05:21:17.056Z,16.26
2023-01-08T05:22:16.979Z,16.15
2023-01-08T05:23:16.794Z,16.17
2023-01-08T05:24:17.013Z,16.22
2023-01-08T05:25:17.711Z,16.31
2023-01-08T05:26:17.008Z,16.32
2023-01-08T05:27:17.155Z,16.33
2023-01-08T05:28:16.941Z,16.29
2023-01-08T05:29:16.994Z,16.27
2023-01-08T05:30:17.718Z,16.31
2023-01-08T05:31:16.973Z,16.36
2023-01-08T05:32:16.746Z,16.34
2023-01-08T05:33:17.066Z,16.22
2023-01-08T05:34:16.970Z,16.23
2023-01-08T05:35:17.331Z,16.23
2023-01-08T05:36:16.840Z,16.30
2023-01-08T05:37:17.369Z,16.32
2023-01-08T05:38:17.200Z,16.31
2023-01-08T05:39:17.256Z,16.23
2023-01-08T05:40:17.222Z,16.26
2023-01-08T05:41:17.372Z,16.20
2023-01-08T05:42:16.929Z,16.09
2023-01-08T05:43:17.008Z,16.17
2023-01-08T05:44:17.243Z,16.27
2023-01-08T05:45:17.017Z,16.30
2023-01-08T05:46:17.107Z,16.27
2023-01-08T05:47:17.053Z,16.20
2023-01-08T05:48:16.514Z,16.17
2023-01-08T05:49:17.039Z,16.23
2023-01-08T05:50:16.891Z,16.21
2023-01-08T05:51:16.976Z,16.17
2023-01-08T05:52:17.181Z,16.06
2023-01-08T05:53:16.569Z,16.11
2023-01-08T05:54:17.130Z,16.21
2023-01-08T05:55:16.815Z,16.17
2023-01-08T05:56:16.922Z,16.12
2023-01-08T05:57:16.470Z,16.15
2023-01-08T05:58:17.134Z,16.02
2023-01-08T05:59:16.865Z,16.05
2023-01-08T06:00:18.240Z,16.13
2023-01-08T06:01:17.586Z,16.13
2023-01-08T06:02:16.588Z,16.19
2023-01-08T06:03:16.943Z,16.27
2023-01-08T06:04:16.860Z,16.26
2023-01-08T06:05:16.994Z,16.22
2023-01-08T06:06:16.889Z,16.10
2023-01-08T06:07:16.846Z,16.10
2023-01-08T06:08:16.716Z,16.20
2023-01-08T06:09:17.107Z,16.18
2023-01-08T06:10:17.366Z,16.23
2023-01-08T06:11:16.905Z,16.23
2023-01-08T06:12:16.758Z,16.19
2023-01-08T06:13:16.973Z,16.17
2023-01-08T06:14:17.527Z,16.26
2023-01-08T06:15:17.671Z,16.32
2023-01-08T06:16:16.571Z,16.37
2023-01-08T06:17:17.141Z,16.37
2023-01-08T06:18:16.947Z,16.35
2023-01-08T06:19:16.979Z,16.31
2023-01-08T06:20:16.816Z,16.34
2023-01-08T06:21:17.170Z,16.36
2023-01-08T06:22:16.679Z,16.29
2023-01-08T06:23:17.324Z,16.22
2023-01-08T06:24:17.208Z,16.19
2023-01-08T06:25:17.451Z,16.18
2023-01-08T06:26:16.578Z,16.16
2023-01-08T06:27:17.230Z,16.22
2023-01-08T06:28:17.008Z,16.25
2023-01-08T06:29:16.990Z,16.21
2023-01-08T06:30:17.591Z,16.25
2023-01-08T06:31:17.261Z,16.29
2023-01-08T06:32:17.216Z,16.22
2023-01-08T06:33:16.386Z,16.18
2023-01-08T06:34:16.576Z,16.21
2023-01-08T06:35:17.375Z,16.22
2023-01-08T06:36:16.547Z,16.25
2023-01-08T06:37:17.292Z,16.27
2023-01-08T06:38:17.171Z,16.23
2023-01-08T06:39:16.813Z,16.22
2023-01-08T06:40:16.610Z,16.18
2023-01-08T06:41:16.664Z,16.17
2023-01-08T06:42:16.888Z,16.20
2023-01-08T06:43:16.992Z,16.23
2023-01-08T06:44:17.103Z,16.23
2023-01-08T06:45:16.773Z,16.25
2023-01-08T06:46:17.062Z,16.28
2023-01-08T06:47:17.061Z,16.27
2023-01-08T06:48:16.760Z,16.24
2023-01-08T06:49:17.019Z,16.19
2023-01-08T06:50:17.189Z,16.18
2023-01-08T06:51:16.858Z,16.20
2023-01-08T06:52:17.032Z,16.16
2023-01-08T06:53:16.934Z,16.12
2023-01-08T06:54:16.875Z,16.15
2023-01-08T06:55:17.078Z,16.19
2023-01-08T06:56:16.599Z,16.23
2023-01-08T06:57:17.100Z,16.26
2023-01-08T06:58:16.871Z,16.28
2023-01-08T06:59:17.005Z,16.29
2023-01-08T07:00:17.873Z,16.29
2023-01-08T07:01:17.355Z,16.32
2023-01-08T07:02:17.092Z,16.30
2023-01-08T07:03:16.950Z,16.34
2023-01-08T07:04:16.572Z,16.34
2023-01-08T07:05:17.172Z,16.35
2023-01-08T07:06:36.021Z,16.38
2023-01-08T07:07:17.080Z,16.38
2023-01-08T07:08:16.530Z,16.37
2023-01-08T07:09:16.779Z,16.39
2023-01-08T07:10:19.708Z,16.38
2023-01-08T07:11:16.894Z,16.39
2023-01-08T07:12:16.554Z,16.38
2023-01-08T07:13:16.759Z,16.36
2023-01-08T07:14:16.789Z,16.37
2023-01-08T07:15:16.750Z,16.38
2023-01-08T07:16:16.776Z,16.37
2023-01-08T07:17:16.747Z,16.38
2023-01-08T07:18:16.844Z,16.38
2023-01-08T07:19:17.117Z,16.42
2023-01-08T07:20:17.268Z,16.43
2023-01-08T07:21:17.099Z,16.44
2023-01-08T07:22:17.085Z,16.44
2023-01-08T07:23:17.361Z,16.43
2023-01-08T07:24:16.609Z,16.40
2023-01-08T07:25:17.093Z,16.40
2023-01-08T07:26:16.903Z,16.38
2023-01-08T07:27:16.939Z,16.36
2023-01-08T07:28:16.781Z,16.37
2023-01-08T07:29:16.742Z,16.32
2023-01-08T07:30:28.621Z,16.31
2023-01-08T07:31:16.954Z,16.27
2023-01-08T07:32:16.617Z,16.20
2023-01-08T07:33:16.849Z,16.14
2023-01-08T07:34:16.889Z,16.21
2023-01-08T07:35:17.130Z,16.21
2023-01-08T07:36:16.195Z,16.15
2023-01-08T07:37:17.016Z,16.10
2023-01-08T07:38:16.941Z,16.07
2023-01-08T07:39:17.359Z,16.06
2023-01-08T07:40:16.867Z,16.06
2023-01-08T07:41:17.017Z,16.05
2023-01-08T07:42:16.883Z,16.06
2023-01-08T07:43:16.698Z,15.98
2023-01-08T07:44:17.206Z,15.90
2023-01-08T07:45:16.943Z,15.92
2023-01-08T07:46:16.778Z,15.90
2023-01-08T07:47:17.222Z,15.96
2023-01-08T07:48:16.810Z,15.96
2023-01-08T07:49:17.069Z,15.99
2023-01-08T07:50:17.448Z,15.94
2023-01-08T07:51:16.943Z,15.94
2023-01-08T07:52:16.408Z,15.85
2023-01-08T07:53:17.194Z,15.83
2023-01-08T07:54:16.890Z,15.81
2023-01-08T07:55:17.060Z,15.81
2023-01-08T07:56:17.296Z,15.86
2023-01-08T07:57:17.167Z,15.91
2023-01-08T07:58:17.649Z,15.94
2023-01-08T07:59:16.867Z,15.96
2023-01-08T08:00:18.558Z,15.98
2023-01-08T08:01:17.503Z,16
2023-01-08T08:02:17.220Z,16.05
2023-01-08T08:03:17.181Z,16.05
2023-01-08T08:04:16.554Z,16.08
2023-01-08T08:05:16.594Z,16.11
2023-01-08T08:06:16.794Z,16.13
2023-01-08T08:07:17.000Z,16.13
2023-01-08T08:08:16.553Z,16.09
2023-01-08T08:09:17.296Z,16.13
2023-01-08T08:10:17.254Z,16.11
2023-01-08T08:11:16.880Z,16.12
2023-01-08T08:12:17.198Z,16.17
2023-01-08T08:13:16.990Z,16.14
2023-01-08T08:14:17.071Z,16.11
2023-01-08T08:15:17.040Z,16.12
2023-01-08T08:16:17.419Z,16.15
2023-01-08T08:17:17.420Z,16.14
2023-01-08T08:18:16.805Z,16.14
2023-01-08T08:19:16.801Z,16.14
2023-01-08T08:20:17.096Z,16.13
2023-01-08T08:21:17.042Z,16.13
2023-01-08T08:22:17.389Z,16.10
2023-01-08T08:23:24.914Z,16.07
2023-01-08T08:24:17.421Z,16.12
2023-01-08T08:25:16.999Z,16.09
2023-01-08T08:26:17.198Z,16.06
2023-01-08T08:27:17.186Z,16.07
2023-01-08T08:28:17.417Z,16.09
2023-01-08T08:29:17.004Z,16.05
2023-01-08T08:30:16.548Z,16.09
2023-01-08T08:31:17.256Z,16.06
2023-01-08T08:32:16.894Z,16.06
2023-01-08T08:33:16.669Z,16.06
2023-01-08T08:34:16.570Z,16.09
2023-01-08T08:35:17.738Z,16.10
2023-01-08T08:36:16.809Z,16.12
2023-01-08T08:37:16.952Z,16.14
2023-01-08T08:38:17.255Z,16.12
2023-01-08T08:39:17.209Z,16.07
2023-01-08T08:40:16.842Z,16.06
2023-01-08T08:41:16.957Z,16.06
2023-01-08T08:42:16.864Z,16.09
2023-01-08T08:43:17.224Z,16.13
2023-01-08T08:44:16.418Z,16.12
2023-01-08T08:45:17.386Z,16.12
2023-01-08T08:46:17.424Z,16.15
2023-01-08T08:47:17.161Z,16.13
2023-01-08T08:48:17.036Z,16.11
2023-01-08T08:49:17.130Z,16.14
2023-01-08T08:50:16.596Z,16.14
2023-01-08T08:51:17.309Z,16.15
2023-01-08T08:52:16.796Z,16.19
2023-01-08T08:53:16.864Z,16.19
2023-01-08T08:54:17.049Z,16.20
2023-01-08T08:55:17.623Z,16.27
2023-01-08T08:56:16.790Z,16.23
2023-01-08T08:57:17.402Z,16.24
2023-01-08T08:58:17.065Z,16.25
2023-01-08T08:59:16.970Z,16.26
2023-01-08T09:00:16.951Z,16.27
2023-01-08T09:01:17.121Z,16.28
2023-01-08T09:02:17.281Z,16.32
2023-01-08T09:03:22.589Z,16.39
2023-01-08T09:04:16.785Z,16.38
2023-01-08T09:05:17.308Z,16.39
2023-01-08T09:06:16.851Z,16.52
2023-01-08T09:07:16.969Z,16.63
2023-01-08T09:08:16.799Z,16.66
2023-01-08T09:09:17.479Z,16.77
2023-01-08T09:10:16.834Z,16.88
2023-01-08T09:11:17.179Z,16.95
2023-01-08T09:12:16.697Z,17
2023-01-08T09:13:17.358Z,17.05
2023-01-08T09:14:16.841Z,17.16
2023-01-08T09:15:17.387Z,17.25
2023-01-08T09:16:17.407Z,17.32
2023-01-08T09:17:17.340Z,17.39
2023-01-08T09:18:17.370Z,17.36
2023-01-08T09:19:17.389Z,17.37
2023-01-08T09:20:17.143Z,17.46
2023-01-08T09:21:17.549Z,17.51
2023-01-08T09:22:15.636Z,17.5
2023-01-08T09:23:17.162Z,17.53
2023-01-08T09:24:16.598Z,17.57
2023-01-08T09:25:17.036Z,17.61
2023-01-08T09:26:16.661Z,17.54
2023-01-08T09:27:16.606Z,17.62
2023-01-08T09:28:17.073Z,17.63
2023-01-08T09:29:16.864Z,17.57
2023-01-08T09:30:17.161Z,17.55
2023-01-08T09:31:17.078Z,17.56
2023-01-08T09:32:16.947Z,17.57
2023-01-08T09:33:17.127Z,17.59
2023-01-08T09:34:16.659Z,17.56
2023-01-08T09:35:17.467Z,17.59
2023-01-08T09:36:16.944Z,17.57
2023-01-08T09:37:17.259Z,17.54
2023-01-08T09:38:16.422Z,17.61
2023-01-08T09:39:17.488Z,17.63
2023-01-08T09:40:17.630Z,17.69
2023-01-08T09:41:17.247Z,17.71
2023-01-08T09:42:16.784Z,17.68
2023-01-08T09:43:16.960Z,17.76
2023-01-08T09:44:16.659Z,17.83
2023-01-08T09:45:17.262Z,17.89
2023-01-08T09:46:16.804Z,17.92
2023-01-08T09:47:17.177Z,17.88
2023-01-08T09:48:17.103Z,17.95
2023-01-08T09:49:16.972Z,17.94
2023-01-08T09:50:17.135Z,17.94
2023-01-08T09:51:17.328Z,17.89
2023-01-08T09:52:17.126Z,17.99
2023-01-08T09:53:17.211Z,18.04
2023-01-08T09:54:16.678Z,18.02
2023-01-08T09:55:17.414Z,17.99
2023-01-08T09:56:16.786Z,17.97
2023-01-08T09:57:17.501Z,17.95
2023-01-08T09:58:16.969Z,17.79
2023-01-08T09:59:17.067Z,17.68
2023-01-08T10:00:17.713Z,17.75
2023-01-08T10:01:17.175Z,17.77
2023-01-08T10:02:17.643Z,17.76
2023-01-08T10:03:17.495Z,17.76
2023-01-08T10:04:17.188Z,17.66
2023-01-08T10:05:17.309Z,17.72
2023-01-08T10:06:17.055Z,17.79
2023-01-08T10:07:16.804Z,17.76
2023-01-08T10:08:17.129Z,17.79
2023-01-08T10:09:17.136Z,17.86
2023-01-08T10:10:17.406Z,17.87
2023-01-08T10:11:16.963Z,17.83
2023-01-08T10:12:17.110Z,17.87
2023-01-08T10:13:17.124Z,17.83
2023-01-08T10:14:17.037Z,17.76
2023-01-08T10:15:18.205Z,17.75
2023-01-08T10:16:17.591Z,17.76
2023-01-08T10:17:17.589Z,17.73
2023-01-08T10:18:17.218Z,17.72
2023-01-08T10:19:16.844Z,17.77
2023-01-08T10:20:17.382Z,17.69
2023-01-08T10:21:17.500Z,17.67
2023-01-08T10:22:16.952Z,17.63
2023-01-08T10:23:16.806Z,17.72
2023-01-08T10:24:17.756Z,17.80
2023-01-08T10:25:17.462Z,17.88
2023-01-08T10:26:17.471Z,17.94
2023-01-08T10:27:17.287Z,17.93
2023-01-08T10:28:17.119Z,18
2023-01-08T10:29:17.257Z,17.99
2023-01-08T10:30:17.404Z,17.88
2023-01-08T10:31:17.359Z,17.90
2023-01-08T10:32:17.280Z,17.94
2023-01-08T10:33:17.175Z,17.97
2023-01-08T10:34:17.239Z,18.01
2023-01-08T10:35:17.322Z,17.91
2023-01-08T10:36:17.188Z,17.94
2023-01-08T10:37:17.336Z,17.89
2023-01-08T10:38:17.421Z,17.78
2023-01-08T10:39:17.058Z,17.73
2023-01-08T10:40:17.124Z,17.75
2023-01-08T10:41:16.928Z,17.79
2023-01-08T10:42:17.055Z,17.83
2023-01-08T10:43:17.407Z,17.81
2023-01-08T10:44:17.026Z,17.73
2023-01-08T10:45:17.291Z,17.66
2023-01-08T10:46:17.037Z,17.64
2023-01-08T10:47:16.989Z,17.64
2023-01-08T10:48:17.006Z,17.68
2023-01-08T10:49:16.883Z,17.68
2023-01-08T10:50:17.013Z,17.73
2023-01-08T10:51:17.648Z,17.68
2023-01-08T10:52:16.612Z,17.66
2023-01-08T10:53:17.250Z,17.69
2023-01-08T10:54:17.006Z,17.67
2023-01-08T10:55:17.272Z,17.71
2023-01-08T10:56:17.427Z,17.68
2023-01-08T10:57:16.999Z,17.71
2023-01-08T10:58:17.443Z,17.78
2023-01-08T10:59:16.925Z,17.86
2023-01-08T11:00:17.835Z,17.87
2023-01-08T11:01:17.442Z,17.88
2023-01-08T11:02:17.224Z,17.95
2023-01-08T11:03:17.291Z,17.97
2023-01-08T11:04:16.992Z,18.01
2023-01-08T11:05:16.834Z,18.00
2023-01-08T11:06:16.751Z,17.93
2023-01-08T11:07:16.954Z,17.97
2023-01-08T11:08:17.095Z,17.97
2023-01-08T11:09:16.913Z,17.97
2023-01-08T11:10:17.483Z,17.98
2023-01-08T11:11:17.126Z,18.01
2023-01-08T11:12:17.166Z,18.04
2023-01-08T11:13:16.851Z,18.08
2023-01-08T11:14:16.792Z,18.11
2023-01-08T11:15:17.379Z,18.11
2023-01-08T11:16:17.258Z,17.98
2023-01-08T11:17:17.180Z,17.94
2023-01-08T11:18:16.700Z,17.95
2023-01-08T11:19:17.720Z,17.95
2023-01-08T11:20:17.468Z,17.92
2023-01-08T11:21:17.148Z,17.92
2023-01-08T11:22:17.169Z,17.87
2023-01-08T11:23:17.158Z,17.88
2023-01-08T11:24:16.706Z,17.84
2023-01-08T11:25:17.409Z,17.79
2023-01-08T11:26:17.261Z,17.73
2023-01-08T11:27:17.167Z,17.71
2023-01-08T11:28:17.081Z,17.64
2023-01-08T11:29:17.539Z,17.59
2023-01-08T11:30:17.570Z,17.69
2023-01-08T11:31:17.196Z,17.68
2023-01-08T11:32:17.109Z,17.68
2023-01-08T11:33:17.108Z,17.70
2023-01-08T11:34:16.878Z,17.70
2023-01-08T11:35:17.091Z,17.76
2023-01-08T11:36:16.989Z,17.81
2023-01-08T11:37:16.990Z,17.81
2023-01-08T11:38:17.369Z,17.84
2023-01-08T11:39:17.691Z,17.80
2023-01-08T11:40:17.425Z,17.83
2023-01-08T11:41:17.148Z,17.88
2023-01-08T11:42:17.314Z,17.81
2023-01-08T11:43:17.411Z,17.84
2023-01-08T11:44:30.794Z,17.89
2023-01-08T11:45:17.253Z,17.88
2023-01-08T11:46:16.849Z,17.83
2023-01-08T11:47:17.533Z,17.82
2023-01-08T11:48:31.133Z,17.82
2023-01-08T11:49:17.503Z,17.77
2023-01-08T11:50:17.455Z,17.75
2023-01-08T11:51:17.237Z,17.68
2023-01-08T11:52:16.790Z,17.72
2023-01-08T11:53:17.317Z,17.72
2023-01-08T11:54:30.946Z,17.77
2023-01-08T11:55:17.443Z,17.79
2023-01-08T11:56:17.503Z,17.79
2023-01-08T11:57:17.229Z,17.86
2023-01-08T11:58:17.411Z,17.87
2023-01-08T11:59:17.204Z,17.86
2023-01-08T12:00:17.937Z,17.90
2023-01-08T12:01:17.766Z,17.94
2023-01-08T12:02:36.038Z,17.99
2023-01-08T12:03:17.119Z,18.04
2023-01-08T12:04:16.939Z,18.13
2023-01-08T12:05:17.639Z,18.17
2023-01-08T12:06:17.071Z,18.20
2023-01-08T12:07:16.856Z,18.23
2023-01-08T12:08:16.870Z,18.21
2023-01-08T12:09:17.076Z,18.18
2023-01-08T12:10:17.010Z,18.07
2023-01-08T12:11:17.239Z,18.06
2023-01-08T12:12:38.894Z,18.06
2023-01-08T12:13:16.896Z,18.09
2023-01-08T12:14:16.913Z,18.08
2023-01-08T12:15:17.068Z,18.04
2023-01-08T12:16:17.340Z,17.98
2023-01-08T12:17:17.108Z,17.98
2023-01-08T12:18:16.563Z,17.93
2023-01-08T12:19:17.320Z,17.90
2023-01-08T12:20:16.943Z,17.98
2023-01-08T12:21:17.039Z,18.02
2023-01-08T12:22:17.044Z,18.03
2023-01-08T12:23:17.181Z,18.03
2023-01-08T12:24:16.707Z,18.04
2023-01-08T12:25:17.214Z,18.06
2023-01-08T12:26:17.031Z,18.04
2023-01-08T12:27:17.252Z,18.05
2023-01-08T12:28:16.765Z,18.04
2023-01-08T12:29:17.027Z,17.95
2023-01-08T12:30:17.001Z,17.83
2023-01-08T12:31:16.994Z,17.75
2023-01-08T12:32:17.371Z,17.82
2023-01-08T12:33:17.074Z,17.80
2023-01-08T12:34:16.676Z,17.72
2023-01-08T12:35:17.319Z,17.60
2023-01-08T12:36:16.224Z,17.54
2023-01-08T12:37:16.939Z,17.56
2023-01-08T12:38:17.733Z,17.58
2023-01-08T12:39:17.052Z,17.54
2023-01-08T12:40:17.213Z,17.54
2023-01-08T12:41:17.112Z,17.48
2023-01-08T12:42:17.245Z,17.40
2023-01-08T12:43:16.945Z,17.36
2023-01-08T12:44:17.207Z,17.32
2023-01-08T12:45:17.193Z,17.34
2023-01-08T12:46:17.157Z,17.26
2023-01-08T12:47:17.577Z,17.22
2023-01-08T12:48:16.754Z,17.22
2023-01-08T12:49:16.927Z,17.25
2023-01-08T12:50:16.905Z,17.24
2023-01-08T12:51:17.284Z,17.21
2023-01-08T12:52:16.920Z,17.10
2023-01-08T12:53:17.281Z,17.09